Paris, Iowa
Current Conditions -  °F | °C
As of 1:15 PM on Sunday 21 Dec 2014 (Local Time) from KMXO Reporting Station
Haze Haze  
Wind Chill: 29°   Ceiling: 1300
Heat Index: 37°   Visibility: 5mi
Dew Point: 37°   Wind: 13mph
Humidity: 100%   Direction: 160°SSE
Pressure: 29.96"   Gusts: NA
Location:  42.1737°N, 91.5309°W
Report Text: KMXO 211915Z AUTO 16011KT 5SM BR OVC013 03/03 A2996 RMK AO2
Loading
Personal Weather Stations






























Interactive Weather Map New forecast layout! Learn more

10-Day Weather Forecast

Advertisements
Track Severe Weather on mobile